createdAt,value
2017-03-08T00:01:01.844Z,3
2017-03-08T00:02:11.281Z,2.96
2017-03-08T00:03:21.152Z,2.9
2017-03-08T00:04:29.863Z,2.97
2017-03-08T00:05:38.934Z,2.9
2017-03-08T00:06:47.996Z,2.89
2017-03-08T00:07:57.837Z,2.96
2017-03-08T00:09:07.279Z,2.99
2017-03-08T00:10:16.735Z,2.99
2017-03-08T00:11:25.828Z,3.05
2017-03-08T00:12:35.278Z,3.11
2017-03-08T00:13:45.131Z,3.1
2017-03-08T00:14:54.572Z,3.42
2017-03-08T00:16:03.647Z,3.52
2017-03-08T00:17:12.716Z,3.66
2017-03-08T00:18:21.786Z,3.68
2017-03-08T00:19:31.250Z,3.51
2017-03-08T00:20:40.715Z,3.36
2017-03-08T00:21:50.558Z,3.29
2017-03-08T00:22:59.617Z,3.26
2017-03-08T00:24:09.077Z,3.31
2017-03-08T00:25:18.168Z,3.15
2017-03-08T00:26:27.241Z,3.06
2017-03-08T00:27:37.092Z,3.05
2017-03-08T00:28:46.937Z,3.15
2017-03-08T00:29:56.767Z,3.23
2017-03-08T00:31:05.829Z,3.28
2017-03-08T00:32:14.896Z,3.31
2017-03-08T00:33:24.361Z,3.28
2017-03-08T00:34:33.851Z,3.23
2017-03-08T00:35:43.702Z,3.14
2017-03-08T00:36:53.152Z,2.97
2017-03-08T00:38:02.623Z,3
2017-03-08T00:39:11.705Z,2.9
2017-03-08T00:40:21.167Z,2.79
2017-03-08T00:41:30.655Z,2.78
2017-03-08T00:42:40.866Z,2.69
2017-03-08T00:43:49.938Z,2.72
2017-03-08T00:44:59.764Z,2.67
2017-03-08T00:46:09.210Z,2.66
2017-03-08T00:47:18.681Z,2.57
2017-03-08T00:48:28.124Z,2.52
2017-03-08T00:49:37.565Z,2.35
2017-03-08T00:50:47.405Z,2.27
2017-03-08T00:51:56.852Z,2.18
2017-03-08T00:53:06.306Z,2.21
2017-03-08T00:54:15.006Z,2.14
2017-03-08T00:55:24.473Z,2.05
2017-03-08T00:56:33.927Z,1.9
2017-03-08T00:57:43.757Z,1.8
2017-03-08T00:58:53.217Z,1.79
2017-03-08T01:00:02.660Z,1.65
2017-03-08T01:01:11.363Z,1.73
2017-03-08T01:02:21.604Z,1.68
2017-03-08T01:03:32.209Z,1.65
2017-03-08T01:04:41.653Z,1.59
2017-03-08T01:05:50.737Z,1.45
2017-03-08T01:07:00.562Z,1.36
2017-03-08T01:08:09.627Z,1.24
2017-03-08T01:09:19.078Z,1.22
2017-03-08T01:10:28.911Z,1.06
2017-03-08T01:11:38.741Z,0.97
2017-03-08T01:12:48.190Z,0.87
2017-03-08T01:13:57.674Z,0.98
2017-03-08T01:15:07.145Z,0.94
2017-03-08T01:16:16.236Z,0.88
2017-03-08T01:17:25.674Z,1.11
2017-03-08T01:18:35.162Z,1.34
2017-03-08T01:19:44.246Z,1.59
2017-03-08T01:20:53.708Z,1.63
2017-03-08T01:22:03.163Z,1.72
2017-03-08T01:23:12.236Z,1.73
2017-03-08T01:24:21.336Z,1.81
2017-03-08T01:25:30.015Z,1.83
2017-03-08T01:26:39.486Z,1.91
2017-03-08T01:27:48.930Z,2.02
2017-03-08T01:28:57.996Z,2.03
2017-03-08T01:30:07.068Z,2.23
2017-03-08T01:31:16.160Z,2.25
2017-03-08T01:32:25.288Z,2.3
2017-03-08T01:33:34.744Z,2.46
2017-03-08T01:34:43.834Z,2.45
2017-03-08T01:35:52.922Z,2.52
2017-03-08T01:37:02.752Z,2.57
2017-03-08T01:38:11.461Z,2.48
2017-03-08T01:39:20.519Z,2.59
2017-03-08T01:40:30.360Z,2.53
2017-03-08T01:41:39.828Z,2.45
2017-03-08T01:42:49.281Z,2.45
2017-03-08T01:43:58.726Z,2.38
2017-03-08T01:45:08.574Z,2.28
2017-03-08T01:46:17.676Z,2.25
2017-03-08T01:47:26.755Z,2.23
2017-03-08T01:48:35.843Z,2.21
2017-03-08T01:49:44.525Z,2.27
2017-03-08T01:50:53.971Z,2.2
2017-03-08T01:52:03.419Z,2.17
2017-03-08T01:53:12.884Z,2.07
2017-03-08T01:54:21.568Z,2.02
2017-03-08T01:55:31.028Z,2.03
2017-03-08T01:56:40.494Z,2.05
2017-03-08T01:57:50.706Z,1.93
2017-03-08T01:59:00.576Z,1.86
2017-03-08T02:00:10.027Z,1.81
2017-03-08T02:01:18.726Z,1.68
2017-03-08T02:02:28.240Z,1.62
2017-03-08T02:03:38.102Z,1.63
2017-03-08T02:04:47.958Z,1.58
2017-03-08T02:05:57.415Z,1.58
2017-03-08T02:07:06.882Z,1.5
2017-03-08T02:08:16.354Z,1.54
2017-03-08T02:09:25.416Z,1.47
2017-03-08T02:10:34.091Z,1.45
2017-03-08T02:11:42.776Z,1.59
2017-03-08T02:12:51.455Z,1.65
2017-03-08T02:14:01.688Z,1.69
2017-03-08T02:15:11.145Z,1.65
2017-03-08T02:16:19.835Z,1.86
2017-03-08T02:17:28.909Z,1.81
2017-03-08T02:18:37.968Z,1.83
2017-03-08T02:19:47.418Z,1.73
2017-03-08T02:20:56.862Z,1.68
2017-03-08T02:22:05.940Z,1.68
2017-03-08T02:23:15.801Z,1.63
2017-03-08T02:24:24.490Z,1.62
2017-03-08T02:25:33.934Z,1.6
2017-03-08T02:26:43.399Z,1.59
2017-03-08T02:27:52.484Z,1.55
2017-03-08T02:29:01.943Z,1.6
2017-03-08T02:30:11.773Z,1.58
2017-03-08T02:31:21.985Z,1.6
2017-03-08T02:32:31.854Z,1.59
2017-03-08T02:33:41.308Z,1.66
2017-03-08T02:34:50.765Z,1.59
2017-03-08T02:36:00.973Z,1.72
2017-03-08T02:37:10.804Z,1.63
2017-03-08T02:38:20.262Z,1.6
2017-03-08T02:39:29.324Z,1.52
2017-03-08T02:40:38.785Z,1.55
2017-03-08T02:41:48.252Z,1.62
2017-03-08T02:42:57.310Z,1.54
2017-03-08T02:44:06.786Z,1.52
2017-03-08T02:45:16.634Z,1.44
2017-03-08T02:46:26.474Z,1.45
2017-03-08T02:47:36.342Z,1.45
2017-03-08T02:48:45.018Z,1.42
2017-03-08T02:49:54.467Z,1.41
2017-03-08T02:51:03.940Z,1.44
2017-03-08T02:52:13.409Z,1.52
2017-03-08T02:53:22.472Z,1.55
2017-03-08T02:54:32.338Z,1.55
2017-03-08T02:55:41.793Z,1.55
2017-03-08T02:56:50.867Z,1.59
2017-03-08T02:58:00.700Z,1.52
2017-03-08T02:59:09.765Z,1.62
2017-03-08T03:00:19.246Z,1.72
2017-03-08T03:01:29.074Z,1.59
2017-03-08T03:02:38.526Z,1.69
2017-03-08T03:03:47.971Z,1.79
2017-03-08T03:04:57.414Z,1.77
2017-03-08T03:06:06.865Z,1.81
2017-03-08T03:07:15.564Z,1.87
2017-03-08T03:08:24.627Z,1.91
2017-03-08T03:09:34.110Z,2.06
2017-03-08T03:10:43.561Z,2.18
2017-03-08T03:11:52.637Z,2.21
2017-03-08T03:13:02.478Z,2.25
2017-03-08T03:14:12.701Z,2.25
2017-03-08T03:15:22.926Z,2.2
2017-03-08T03:16:32.013Z,2.23
2017-03-08T03:17:41.451Z,2.3
2017-03-08T03:18:50.528Z,2.25
2017-03-08T03:19:59.611Z,2.38
2017-03-08T03:21:09.436Z,2.49
2017-03-08T03:22:18.885Z,2.52
2017-03-08T03:23:27.988Z,2.6
2017-03-08T03:24:37.819Z,2.71
2017-03-08T03:25:46.894Z,2.77
2017-03-08T03:26:55.963Z,2.72
2017-03-08T03:28:05.408Z,2.87
2017-03-08T03:29:14.871Z,2.82
2017-03-08T03:30:24.713Z,2.87
2017-03-08T03:31:33.787Z,2.84
2017-03-08T03:32:42.851Z,2.82
2017-03-08T03:33:52.311Z,2.87
2017-03-08T03:35:01.399Z,2.85
2017-03-08T03:36:10.097Z,2.9
2017-03-08T03:37:19.945Z,2.96
2017-03-08T03:38:29.467Z,2.85
2017-03-08T03:39:38.908Z,2.95
2017-03-08T03:40:48.009Z,2.97
2017-03-08T03:41:57.469Z,2.84
2017-03-08T03:43:07.333Z,2.85
2017-03-08T03:44:16.070Z,2.84
2017-03-08T03:45:25.543Z,2.85
2017-03-08T03:46:35.459Z,2.87
2017-03-08T03:47:44.519Z,2.93
2017-03-08T03:48:53.586Z,2.85
2017-03-08T03:50:03.896Z,2.9
2017-03-08T03:51:13.015Z,2.87
2017-03-08T03:52:22.169Z,2.85
2017-03-08T03:53:31.698Z,2.9
2017-03-08T03:54:41.571Z,2.81
2017-03-08T03:55:50.729Z,2.87
2017-03-08T03:57:00.296Z,2.9
2017-03-08T03:58:10.515Z,2.79
2017-03-08T03:59:20.351Z,2.87
2017-03-08T04:00:29.427Z,2.9
2017-03-08T04:01:38.976Z,2.89
2017-03-08T04:02:48.429Z,2.89
2017-03-08T04:03:57.185Z,2.89
2017-03-08T04:05:07.051Z,2.89
2017-03-08T04:06:16.182Z,2.89
2017-03-08T04:07:25.708Z,2.89
2017-03-08T04:08:34.818Z,2.97
2017-03-08T04:09:43.957Z,2.95
2017-03-08T04:10:53.444Z,3.02
2017-03-08T04:12:02.934Z,2.93
2017-03-08T04:13:12.845Z,2.95
2017-03-08T04:14:21.908Z,3.08
2017-03-08T04:15:31.085Z,3.13
2017-03-08T04:16:40.525Z,3.13
2017-03-08T04:17:50.808Z,3.1
2017-03-08T04:18:59.899Z,3.24
2017-03-08T04:20:09.738Z,3.23
2017-03-08T04:21:18.854Z,3.17
2017-03-08T04:22:27.554Z,3.15
2017-03-08T04:23:36.626Z,3.18
2017-03-08T04:24:45.684Z,3.17
2017-03-08T04:25:55.157Z,3.24
2017-03-08T04:27:04.618Z,3.29
2017-03-08T04:28:13.734Z,3.31
2017-03-08T04:29:22.830Z,3.31
2017-03-08T04:30:31.539Z,3.32
2017-03-08T04:31:41.033Z,3.26
2017-03-08T04:32:50.122Z,3.42
2017-03-08T04:33:59.625Z,3.32
2017-03-08T04:35:08.717Z,3.28
2017-03-08T04:36:18.585Z,3.35
2017-03-08T04:37:27.651Z,3.36
2017-03-08T04:38:37.134Z,3.35
2017-03-08T04:39:46.203Z,3.45
2017-03-08T04:40:55.268Z,3.48
2017-03-08T04:42:04.752Z,3.45
2017-03-08T04:43:13.829Z,3.45
2017-03-08T04:44:22.521Z,3.54
2017-03-08T04:45:33.138Z,3.57
2017-03-08T04:46:43.341Z,3.7
2017-03-08T04:47:52.867Z,3.83
2017-03-08T04:49:02.059Z,3.78
2017-03-08T04:50:12.794Z,3.9
2017-03-08T04:51:22.285Z,3.94
2017-03-08T04:52:31.399Z,3.94
2017-03-08T04:53:40.504Z,3.84
2017-03-08T04:54:49.210Z,3.78
2017-03-08T04:55:58.724Z,3.79
2017-03-08T04:57:08.613Z,3.78
2017-03-08T04:58:17.726Z,3.75
2017-03-08T04:59:26.412Z,3.69
2017-03-08T05:00:35.912Z,3.76
2017-03-08T05:01:45.827Z,3.78
2017-03-08T05:02:54.966Z,3.79
2017-03-08T05:04:04.461Z,3.73
2017-03-08T05:05:13.924Z,3.83
2017-03-08T05:06:23.401Z,3.76
2017-03-08T05:07:32.886Z,3.79
2017-03-08T05:08:42.729Z,3.83
2017-03-08T05:09:51.793Z,3.83
2017-03-08T05:11:01.342Z,3.8
2017-03-08T05:12:11.243Z,3.8
2017-03-08T05:13:20.691Z,3.84
2017-03-08T05:14:29.456Z,3.78
2017-03-08T05:15:38.528Z,3.84
2017-03-08T05:16:48.370Z,3.84
2017-03-08T05:17:57.820Z,3.78
2017-03-08T05:19:06.558Z,3.84
2017-03-08T05:20:16.522Z,3.8
2017-03-08T05:21:25.211Z,3.78
2017-03-08T05:22:34.667Z,3.78
2017-03-08T05:23:44.648Z,3.91
2017-03-08T05:24:53.748Z,3.9
2017-03-08T05:26:02.920Z,3.93
2017-03-08T05:27:12.029Z,4.09
2017-03-08T05:28:21.485Z,4.02
2017-03-08T05:29:30.596Z,3.91
2017-03-08T05:30:40.455Z,3.88
2017-03-08T05:31:50.398Z,4.02
2017-03-08T05:33:00.244Z,3.96
2017-03-08T05:34:10.158Z,3.9
2017-03-08T05:35:19.222Z,3.93
2017-03-08T05:36:28.728Z,3.88
2017-03-08T05:37:37.804Z,3.93
2017-03-08T05:38:46.880Z,3.93
2017-03-08T05:39:56.763Z,3.94
2017-03-08T05:41:06.616Z,3.87
2017-03-08T05:42:16.058Z,3.91
2017-03-08T05:43:25.538Z,3.9
2017-03-08T05:44:35.768Z,3.93
2017-03-08T05:45:44.840Z,3.96
2017-03-08T05:46:54.724Z,3.9
2017-03-08T05:48:04.196Z,3.87
2017-03-08T05:49:14.042Z,3.94
2017-03-08T05:50:23.129Z,3.98
2017-03-08T05:51:32.959Z,3.97
2017-03-08T05:52:41.649Z,3.93
2017-03-08T05:53:50.735Z,3.91
2017-03-08T05:54:59.436Z,3.9
2017-03-08T05:56:08.908Z,3.9
2017-03-08T05:57:17.973Z,3.88
2017-03-08T05:58:27.059Z,3.93
2017-03-08T05:59:36.881Z,3.93
2017-03-08T06:00:46.754Z,3.97
2017-03-08T06:01:56.210Z,3.93
2017-03-08T06:03:05.321Z,3.96
2017-03-08T06:04:14.467Z,3.94
2017-03-08T06:05:23.570Z,3.96
2017-03-08T06:06:32.258Z,3.94
2017-03-08T06:07:41.805Z,4
2017-03-08T06:08:51.278Z,3.97
2017-03-08T06:10:00.360Z,3.98
2017-03-08T06:11:09.837Z,3.97
2017-03-08T06:12:18.994Z,3.97
2017-03-08T06:13:28.525Z,4.05
2017-03-08T06:14:38.443Z,3.97
2017-03-08T06:15:47.521Z,3.97
2017-03-08T06:16:56.649Z,4
2017-03-08T06:18:06.517Z,3.98
2017-03-08T06:19:15.218Z,4.06
2017-03-08T06:20:24.720Z,4.09
2017-03-08T06:21:33.803Z,3.98
2017-03-08T06:22:42.913Z,3.98
2017-03-08T06:23:52.003Z,4.11
2017-03-08T06:25:01.100Z,4.04
2017-03-08T06:26:10.585Z,4.04
2017-03-08T06:27:19.666Z,4.02
2017-03-08T06:28:28.419Z,4.15
2017-03-08T06:29:37.870Z,4.02
2017-03-08T06:30:47.689Z,4.08
2017-03-08T06:31:57.147Z,4.14
2017-03-08T06:33:06.598Z,4.08
2017-03-08T06:34:16.047Z,4.18
2017-03-08T06:35:24.731Z,4.26
2017-03-08T06:36:34.173Z,4.23
2017-03-08T06:37:42.867Z,4.26
2017-03-08T06:38:53.077Z,4.23
2017-03-08T06:40:02.177Z,4.24
2017-03-08T06:41:11.622Z,4.26
2017-03-08T06:42:21.839Z,4.3
2017-03-08T06:43:30.542Z,4.37
2017-03-08T06:44:40.019Z,4.36
2017-03-08T06:45:49.141Z,4.27
2017-03-08T06:46:58.212Z,4.36
2017-03-08T06:48:07.664Z,4.44
2017-03-08T06:49:17.120Z,4.37
2017-03-08T06:50:26.612Z,4.42
2017-03-08T06:51:35.333Z,4.44
2017-03-08T06:52:44.426Z,4.48
2017-03-08T06:53:53.878Z,4.48
2017-03-08T06:55:03.391Z,4.47
2017-03-08T06:56:12.842Z,4.48
2017-03-08T06:57:22.678Z,4.51
2017-03-08T06:58:32.128Z,4.51
2017-03-08T06:59:41.583Z,4.58
2017-03-08T07:00:51.041Z,4.55
2017-03-08T07:02:00.869Z,4.65
2017-03-08T07:03:10.365Z,4.59
2017-03-08T07:04:19.875Z,4.59
2017-03-08T07:05:28.948Z,4.59
2017-03-08T07:06:38.097Z,4.59
2017-03-08T07:07:47.947Z,4.59
2017-03-08T07:08:57.782Z,4.69
2017-03-08T07:10:07.663Z,4.66
2017-03-08T07:11:17.915Z,4.73
2017-03-08T07:12:27.029Z,4.7
2017-03-08T07:13:36.132Z,4.73
2017-03-08T07:14:45.582Z,4.72
2017-03-08T07:15:54.651Z,4.8
2017-03-08T07:17:03.727Z,4.72
2017-03-08T07:18:13.177Z,4.77
2017-03-08T07:19:22.268Z,4.86
2017-03-08T07:20:31.344Z,4.82
2017-03-08T07:21:40.409Z,4.77
2017-03-08T07:22:49.101Z,4.77
2017-03-08T07:23:58.162Z,4.82
2017-03-08T07:25:08.367Z,4.89
2017-03-08T07:26:17.457Z,4.91
2017-03-08T07:27:26.915Z,4.86
2017-03-08T07:28:36.370Z,4.88
2017-03-08T07:29:45.863Z,4.96
2017-03-08T07:30:55.361Z,5.03
2017-03-08T07:32:05.203Z,5.03
2017-03-08T07:33:14.654Z,5.03
2017-03-08T07:34:24.099Z,5.03
2017-03-08T07:35:33.181Z,5.07
2017-03-08T07:36:41.878Z,5.07
2017-03-08T07:37:51.354Z,5.12
2017-03-08T07:39:00.410Z,5.1
2017-03-08T07:40:10.654Z,5.09
2017-03-08T07:41:19.722Z,5.06
2017-03-08T07:42:29.579Z,5.18
2017-03-08T07:43:39.413Z,5.06
2017-03-08T07:44:49.245Z,5.1
2017-03-08T07:45:57.924Z,5.13
2017-03-08T07:47:07.020Z,5.06
2017-03-08T07:48:16.858Z,5.1
2017-03-08T07:49:26.686Z,5.06
2017-03-08T07:50:36.144Z,5.21
2017-03-08T07:51:46.372Z,5.15
2017-03-08T07:52:55.472Z,5.1
2017-03-08T07:54:04.184Z,5.21
2017-03-08T07:55:14.409Z,5.18
2017-03-08T07:56:23.501Z,5.15
2017-03-08T07:57:32.959Z,5.2
2017-03-08T07:58:42.429Z,5.17
2017-03-08T07:59:51.911Z,5.24
2017-03-08T08:01:00.630Z,5.21
2017-03-08T08:02:09.311Z,5.2
2017-03-08T08:03:19.160Z,5.2
2017-03-08T08:04:29.038Z,5.21
2017-03-08T08:05:38.488Z,5.22
2017-03-08T08:06:47.562Z,5.3
2017-03-08T08:07:57.410Z,5.33
2017-03-08T08:09:06.882Z,5.35
2017-03-08T08:10:16.354Z,5.3
2017-03-08T08:11:25.828Z,5.36
2017-03-08T08:12:35.301Z,5.31
2017-03-08T08:13:44.781Z,5.31
2017-03-08T08:14:54.639Z,5.22
2017-03-08T08:16:03.352Z,5.28
2017-03-08T08:17:12.810Z,5.24
2017-03-08T08:18:22.277Z,5.2
2017-03-08T08:19:32.548Z,5.21
2017-03-08T08:20:41.602Z,5.25
2017-03-08T08:21:50.690Z,5.17
2017-03-08T08:22:59.768Z,5.2
2017-03-08T08:24:08.856Z,5.18
2017-03-08T08:25:19.091Z,5.12
2017-03-08T08:26:28.973Z,5.03
2017-03-08T08:27:38.425Z,5.04
2017-03-08T08:28:48.256Z,4.99
2017-03-08T08:29:57.334Z,4.94
2017-03-08T08:31:06.395Z,4.92
2017-03-08T08:32:16.217Z,4.96
2017-03-08T08:33:25.700Z,4.86
2017-03-08T08:34:35.534Z,4.89
2017-03-08T08:35:44.616Z,4.88
2017-03-08T08:36:54.070Z,4.8
2017-03-08T08:38:02.764Z,4.84
2017-03-08T08:39:12.225Z,4.84
2017-03-08T08:40:22.825Z,4.78
2017-03-08T08:41:32.289Z,4.77
2017-03-08T08:42:42.507Z,4.75
2017-03-08T08:43:52.338Z,4.65
2017-03-08T08:45:01.393Z,4.77
2017-03-08T08:46:11.237Z,4.6
2017-03-08T08:47:19.924Z,4.73
2017-03-08T08:48:30.177Z,4.72
2017-03-08T08:49:39.245Z,4.67
2017-03-08T08:50:48.704Z,4.69
2017-03-08T08:51:58.145Z,4.73
2017-03-08T08:53:07.207Z,4.77
2017-03-08T08:54:17.419Z,4.6
2017-03-08T08:55:26.492Z,4.67
2017-03-08T08:56:36.716Z,4.72
2017-03-08T08:57:46.170Z,4.72
2017-03-08T08:58:55.629Z,4.72
2017-03-08T09:00:04.710Z,4.73
2017-03-08T09:01:13.787Z,4.6
2017-03-08T09:02:23.649Z,4.75
2017-03-08T09:03:32.358Z,4.66
2017-03-08T09:04:42.571Z,4.75
2017-03-08T09:05:52.035Z,4.73
2017-03-08T09:07:01.504Z,4.7
2017-03-08T09:08:10.985Z,4.67
2017-03-08T09:09:19.670Z,4.67
2017-03-08T09:10:28.343Z,4.67
2017-03-08T09:11:37.799Z,4.69
2017-03-08T09:12:47.662Z,4.72
2017-03-08T09:13:56.335Z,4.77
2017-03-08T09:15:05.819Z,4.63
2017-03-08T09:16:15.288Z,4.59
2017-03-08T09:17:25.378Z,4.72
2017-03-08T09:18:36.419Z,4.82
2017-03-08T09:19:46.110Z,4.73
2017-03-08T09:20:55.211Z,4.85
2017-03-08T09:22:35.984Z,4.7
2017-03-08T09:23:46.210Z,4.84
2017-03-08T09:24:54.926Z,4.77
2017-03-08T09:26:04.000Z,4.78
2017-03-08T09:27:13.088Z,4.82
2017-03-08T09:28:21.870Z,4.84
2017-03-08T09:29:31.786Z,4.82
2017-03-08T09:30:41.239Z,4.91
2017-03-08T09:31:49.924Z,4.89
2017-03-08T09:33:00.525Z,4.89
2017-03-08T09:34:10.393Z,4.92
2017-03-08T09:35:19.109Z,4.94
2017-03-08T09:36:28.592Z,4.99
2017-03-08T09:37:37.290Z,4.96
2017-03-08T09:38:45.983Z,4.94
2017-03-08T09:39:55.448Z,4.91
2017-03-08T09:41:04.918Z,4.96
2017-03-08T09:42:14.752Z,4.89
2017-03-08T09:43:23.844Z,4.94
2017-03-08T09:44:32.927Z,4.96
2017-03-08T09:45:41.984Z,5
2017-03-08T09:46:51.469Z,4.97
2017-03-08T09:48:00.587Z,5
2017-03-08T09:49:10.054Z,5
2017-03-08T09:50:19.503Z,4.99
2017-03-08T09:51:28.580Z,5.02
2017-03-08T09:52:37.658Z,5.07
2017-03-08T09:53:46.726Z,5.07
2017-03-08T09:54:56.580Z,5.06
2017-03-08T09:56:05.269Z,5.13
2017-03-08T09:57:14.736Z,5.15
2017-03-08T09:58:23.854Z,5.13
2017-03-08T09:59:32.549Z,5.18
2017-03-08T10:00:42.005Z,5.21
2017-03-08T10:01:51.464Z,5.17
2017-03-08T10:03:01.306Z,5.21
2017-03-08T10:04:10.404Z,5.21
2017-03-08T10:05:19.498Z,5.15
2017-03-08T10:06:28.562Z,5.21
2017-03-08T10:07:38.430Z,5.15
2017-03-08T10:08:47.506Z,5.15
2017-03-08T10:09:56.572Z,5.21
2017-03-08T10:11:05.659Z,5.18
2017-03-08T10:12:15.882Z,5.21
2017-03-08T10:13:24.972Z,5.33
2017-03-08T10:14:33.661Z,5.33
2017-03-08T10:15:42.730Z,5.31
2017-03-08T10:16:52.193Z,5.28
2017-03-08T10:18:02.050Z,5.38
2017-03-08T10:19:11.899Z,5.42
2017-03-08T10:20:21.733Z,5.43
2017-03-08T10:21:30.830Z,5.48
2017-03-08T10:22:39.908Z,5.36
2017-03-08T10:23:49.822Z,5.4
2017-03-08T10:25:00.087Z,5.4
2017-03-08T10:26:09.949Z,5.4
2017-03-08T10:27:19.802Z,5.42
2017-03-08T10:28:28.494Z,5.46
2017-03-08T10:29:37.951Z,5.56
2017-03-08T10:30:47.417Z,5.45
2017-03-08T10:31:56.134Z,5.49
2017-03-08T10:33:05.603Z,5.45
2017-03-08T10:34:15.439Z,5.39
2017-03-08T10:35:24.504Z,5.45
2017-03-08T10:36:34.025Z,5.45
2017-03-08T10:37:43.849Z,5.53
2017-03-08T10:38:52.953Z,5.48
2017-03-08T10:40:02.037Z,5.53
2017-03-08T10:41:11.484Z,5.49
2017-03-08T10:42:20.190Z,5.43
2017-03-08T10:43:29.639Z,5.38
2017-03-08T10:44:38.744Z,5.48
2017-03-08T10:45:48.587Z,5.45
2017-03-08T10:46:57.859Z,5.35
2017-03-08T10:48:06.987Z,5.39
2017-03-08T10:49:16.466Z,5.4
2017-03-08T10:50:25.239Z,5.46
2017-03-08T10:51:34.729Z,5.4
2017-03-08T10:52:44.203Z,5.36
2017-03-08T10:53:54.030Z,5.33
2017-03-08T10:55:03.856Z,5.35
2017-03-08T10:56:13.335Z,5.35
2017-03-08T10:57:22.800Z,5.45
2017-03-08T10:58:32.249Z,5.48
2017-03-08T10:59:41.320Z,5.48
2017-03-08T11:00:50.800Z,5.56
2017-03-08T11:02:00.654Z,5.53
2017-03-08T11:03:10.096Z,5.64
2017-03-08T11:04:20.344Z,5.65
2017-03-08T11:05:29.408Z,5.6
2017-03-08T11:06:39.248Z,5.63
2017-03-08T11:07:49.457Z,5.65
2017-03-08T11:08:59.310Z,5.74
2017-03-08T11:10:09.537Z,5.71
2017-03-08T11:11:19.393Z,5.86
2017-03-08T11:12:29.624Z,5.83
2017-03-08T11:13:39.850Z,5.79
2017-03-08T11:14:49.699Z,5.74
2017-03-08T11:15:59.924Z,5.89
2017-03-08T11:17:09.758Z,5.9
2017-03-08T11:18:18.821Z,5.85
2017-03-08T11:19:29.039Z,5.9
2017-03-08T11:20:38.103Z,5.89
2017-03-08T11:21:47.587Z,5.81
2017-03-08T11:22:57.815Z,5.79
2017-03-08T11:24:08.017Z,5.89
2017-03-08T11:25:17.458Z,5.79
2017-03-08T11:26:26.929Z,5.85
2017-03-08T11:27:36.381Z,5.81
2017-03-08T11:28:46.210Z,5.79
2017-03-08T11:29:56.055Z,5.79
2017-03-08T11:31:05.523Z,5.78
2017-03-08T11:32:15.348Z,5.78
2017-03-08T11:33:25.212Z,5.79
2017-03-08T11:34:35.065Z,5.76
2017-03-08T11:35:44.893Z,5.79
2017-03-08T11:36:54.758Z,5.83
2017-03-08T11:38:05.003Z,5.81
2017-03-08T11:39:15.226Z,5.79
2017-03-08T11:40:24.677Z,5.81
2017-03-08T11:41:34.520Z,5.78
2017-03-08T11:42:43.593Z,5.85
2017-03-08T11:43:53.061Z,5.9
2017-03-08T11:45:02.125Z,5.86
2017-03-08T11:46:11.607Z,6
2017-03-08T11:47:20.705Z,6.15
2017-03-08T11:48:30.178Z,6.14
2017-03-08T11:49:39.637Z,6.08
2017-03-08T11:50:49.105Z,6.17
2017-03-08T11:51:58.182Z,6.19
2017-03-08T11:53:07.653Z,6.11
2017-03-08T11:54:17.496Z,6.12
2017-03-08T11:55:26.956Z,6.06
2017-03-08T11:56:36.394Z,6.12
2017-03-08T11:57:45.483Z,6.01
2017-03-08T11:58:55.353Z,6.06
2017-03-08T12:00:05.185Z,6.09
2017-03-08T12:01:14.652Z,6.18
2017-03-08T12:02:24.514Z,6.19
2017-03-08T12:03:33.575Z,6.19
2017-03-08T12:04:43.051Z,6.22
2017-03-08T12:05:52.492Z,6.38
2017-03-08T12:07:01.972Z,6.37
2017-03-08T12:08:11.439Z,6.44
2017-03-08T12:09:21.262Z,6.49
2017-03-08T12:10:30.338Z,6.55
2017-03-08T12:11:39.790Z,6.51
2017-03-08T12:12:48.484Z,6.55
2017-03-08T12:13:57.555Z,6.52
2017-03-08T12:15:07.398Z,6.56
2017-03-08T12:16:16.496Z,6.55
2017-03-08T12:17:25.651Z,6.41
2017-03-08T12:18:35.113Z,6.41
2017-03-08T12:19:44.215Z,6.51
2017-03-08T12:20:52.952Z,6.52
2017-03-08T12:22:02.423Z,6.58
2017-03-08T12:23:11.521Z,6.49
2017-03-08T12:24:21.010Z,6.49
2017-03-08T12:25:30.486Z,6.46
2017-03-08T12:26:39.931Z,6.43
2017-03-08T12:27:48.614Z,6.38
2017-03-08T12:28:58.084Z,6.19
2017-03-08T12:30:07.165Z,6.28
2017-03-08T12:31:16.632Z,6.36
2017-03-08T12:32:27.536Z,6.34
2017-03-08T12:33:36.213Z,6.33
2017-03-08T12:34:45.298Z,6.19
2017-03-08T12:35:53.980Z,6.14
2017-03-08T12:37:03.443Z,6.21
2017-03-08T12:38:12.499Z,6.17
2017-03-08T12:39:21.947Z,6.21
2017-03-08T12:40:31.014Z,6.19
2017-03-08T12:41:40.450Z,6.21
2017-03-08T12:42:49.539Z,6.21
2017-03-08T12:43:58.987Z,6.15
2017-03-08T12:45:08.465Z,6.17
2017-03-08T12:46:18.303Z,6.17
2017-03-08T12:47:27.368Z,6.14
2017-03-08T12:48:37.239Z,6.06
2017-03-08T12:49:46.326Z,6.14
2017-03-08T12:50:55.406Z,6.15
2017-03-08T12:52:05.986Z,6.19
2017-03-08T12:53:15.419Z,6.15
2017-03-08T12:54:24.878Z,6.18
2017-03-08T12:55:33.945Z,6.25
2017-03-08T12:56:43.787Z,6.17
2017-03-08T12:57:52.851Z,6.15
2017-03-08T12:59:02.685Z,6.28
2017-03-08T13:00:11.736Z,6.28
2017-03-08T13:01:20.447Z,6.37
2017-03-08T13:02:30.295Z,6.34
2017-03-08T13:03:39.763Z,6.37
2017-03-08T13:04:49.145Z,6.43
2017-03-08T13:05:58.974Z,6.44
2017-03-08T13:07:08.435Z,6.46
2017-03-08T13:08:17.135Z,6.43
2017-03-08T13:09:25.830Z,6.41
2017-03-08T13:10:34.901Z,6.56
2017-03-08T13:11:43.977Z,6.54
2017-03-08T13:12:53.042Z,6.61
2017-03-08T13:14:02.130Z,6.55
2017-03-08T13:15:11.958Z,6.56
2017-03-08T13:16:21.423Z,6.58
2017-03-08T13:17:30.893Z,6.61
2017-03-08T13:18:39.960Z,6.54
2017-03-08T13:19:49.803Z,6.55
2017-03-08T13:20:58.508Z,6.54
2017-03-08T13:22:07.986Z,6.51
2017-03-08T13:23:16.682Z,6.58
2017-03-08T13:24:26.146Z,6.51
2017-03-08T13:25:34.829Z,6.56
2017-03-08T13:26:44.001Z,6.55
2017-03-08T13:27:53.068Z,6.55
2017-03-08T13:29:02.512Z,6.48
2017-03-08T13:30:12.377Z,6.46
2017-03-08T13:31:21.856Z,6.46
2017-03-08T13:32:31.704Z,6.43
2017-03-08T13:33:41.534Z,6.38
2017-03-08T13:34:50.733Z,6.41
2017-03-08T13:35:59.795Z,6.4
2017-03-08T13:37:09.253Z,6.37
2017-03-08T13:38:18.701Z,6.38
2017-03-08T13:39:27.380Z,6.41
2017-03-08T13:40:36.078Z,6.43
2017-03-08T13:41:45.137Z,6.43
2017-03-08T13:42:53.832Z,6.46
2017-03-08T13:44:03.283Z,6.48
2017-03-08T13:45:13.123Z,6.49
2017-03-08T13:46:22.557Z,6.46
2017-03-08T13:47:31.814Z,6.48
2017-03-08T13:48:41.272Z,6.46
2017-03-08T13:49:51.492Z,6.48
2017-03-08T13:51:00.564Z,6.46
2017-03-08T13:52:10.020Z,6.37
2017-03-08T13:53:19.487Z,6.44
2017-03-08T13:54:28.932Z,6.44
2017-03-08T13:55:37.999Z,6.43
2017-03-08T13:56:47.073Z,6.37
2017-03-08T13:57:56.155Z,6.34
2017-03-08T13:59:05.272Z,6.49
2017-03-08T14:00:15.111Z,6.48
2017-03-08T14:01:24.951Z,6.55
2017-03-08T14:02:34.786Z,6.51
2017-03-08T14:03:44.229Z,6.55
2017-03-08T14:04:53.701Z,6.56
2017-03-08T14:06:03.154Z,6.55
2017-03-08T14:07:13.401Z,6.49
2017-03-08T14:08:23.629Z,6.48
2017-03-08T14:09:32.462Z,6.41
2017-03-08T14:10:41.949Z,6.43
2017-03-08T14:11:51.809Z,6.49
2017-03-08T14:13:00.503Z,6.41
2017-03-08T14:14:09.192Z,6.43
2017-03-08T14:15:18.646Z,6.46
2017-03-08T14:16:27.355Z,6.49
2017-03-08T14:17:36.421Z,6.46
2017-03-08T14:18:45.518Z,6.46
2017-03-08T14:19:54.607Z,6.46
2017-03-08T14:21:03.306Z,6.48
2017-03-08T14:22:12.773Z,6.46
2017-03-08T14:23:22.237Z,6.46
2017-03-08T14:24:31.298Z,6.48
2017-03-08T14:25:39.981Z,6.58
2017-03-08T14:26:49.422Z,6.56
2017-03-08T14:27:58.490Z,6.44
2017-03-08T14:29:07.930Z,6.48
2017-03-08T14:30:17.807Z,6.44
2017-03-08T14:31:27.286Z,6.37
2017-03-08T14:32:37.125Z,6.37
2017-03-08T14:33:46.187Z,6.43
2017-03-08T14:34:56.418Z,6.44
2017-03-08T14:36:05.881Z,6.55
2017-03-08T14:37:15.326Z,6.54
2017-03-08T14:38:25.580Z,6.55
2017-03-08T14:39:35.416Z,6.56
2017-03-08T14:40:44.499Z,6.48
2017-03-08T14:41:53.935Z,6.49
2017-03-08T14:43:03.404Z,6.58
2017-03-08T14:44:12.852Z,6.7
2017-03-08T14:45:22.323Z,6.69
2017-03-08T14:46:32.535Z,6.73
2017-03-08T14:47:42.778Z,6.89
2017-03-08T14:48:52.291Z,6.92
2017-03-08T14:50:01.385Z,6.79
2017-03-08T14:51:10.447Z,6.76
2017-03-08T14:52:19.138Z,6.7
2017-03-08T14:53:29.031Z,6.7
2017-03-08T14:54:38.912Z,6.69
2017-03-08T14:55:48.478Z,6.84
2017-03-08T14:56:57.793Z,6.7
2017-03-08T14:58:07.369Z,6.85
2017-03-08T14:59:16.826Z,6.73
2017-03-08T15:00:25.542Z,6.71
2017-03-08T15:01:35.115Z,6.88
2017-03-08T15:02:44.601Z,6.7
2017-03-08T15:03:54.427Z,6.79
2017-03-08T15:05:03.914Z,6.81
2017-03-08T15:06:13.443Z,6.81
2017-03-08T15:07:22.696Z,6.8
2017-03-08T15:08:31.795Z,6.84
2017-03-08T15:09:40.488Z,6.87
2017-03-08T15:10:49.576Z,6.92
2017-03-08T15:11:59.049Z,6.97
2017-03-08T15:13:08.565Z,6.97
2017-03-08T15:14:18.400Z,6.95
2017-03-08T15:15:27.841Z,7.09
2017-03-08T15:16:36.547Z,7.07
2017-03-08T15:17:45.613Z,7.09
2017-03-08T15:18:55.101Z,7.17
2017-03-08T15:20:04.547Z,7.16
2017-03-08T15:21:13.635Z,7.16
2017-03-08T15:22:22.538Z,7.21
2017-03-08T15:23:32.510Z,7.16
2017-03-08T15:24:41.590Z,7.21
2017-03-08T15:25:51.411Z,7.06
2017-03-08T15:27:00.867Z,7.12
2017-03-08T15:28:10.703Z,7.07